Capt. Tom EchoLS Sr. — WDC3771 — position and weather

sailwx.info

Track history (hours):
 
Tides and Currents Weather Stations Pressure Air Temp Water Temp Dewpoint Dewpoint Depression Visibility Wind Speed Wind Dir Waves Ship Positions

Capt. Tom EchoLS Sr.

Owner: Echo Towing Service, Inc. P.O. Box 446 Baytown, Texas 77522, Baytown, TX. More information available from US FCC via Universal Licensing System and Coast Guard Vessel Documentation Center.

Last reported at 2018-Feb-23 05:58 UTC. Time now 2018-Feb-23 08:43 UTC.
Position N 29°46' W 095°05'.

Length 20 m; draft 2.4 m.

Type: . MMSI: 367125100.

Date/timePositionNaut miles runAvg speedWind from/ knotsBaromVisibWave heightAir tempDewpointWater temp
2018-Feb-23 05:58N 29°46' W 095°05'2 4.1
2018-Feb-23 05:30N 29°44' W 095°03'3 5.0
2018-Feb-23 04:59N 29°43' W 095°01'3 5.6
2018-Feb-23 04:30N 29°41' W 094°59'3 5.9
2018-Feb-23 04:00N 29°38' W 094°58'3 6.0
2018-Feb-23 03:30N 29°35' W 094°56'3 6.0
2018-Feb-23 02:59N 29°33' W 094°54'13 0.4
2018-Feb-21 14:30N 29°44' W 095°03'1 0.1
2018-Feb-20 18:11N 29°45' W 095°04'1 5.8
2018-Feb-20 17:57N 29°44' W 095°03'2 5.1
2018-Feb-20 17:30N 29°42' W 095°01'3 5.8
2018-Feb-20 17:00N 29°40' W 094°59'3 6.3
2018-Feb-20 16:30N 29°37' W 094°57'3 5.3
2018-Feb-20 16:00N 29°37' W 095°00'1 1.6
2018-Feb-20 15:30N 29°37' W 095°01'0 0.0
2018-Feb-20 15:00N 29°37' W 095°01'0 0.0
2018-Feb-20 14:30N 29°37' W 095°01'0 0.0
2018-Feb-20 14:00N 29°37' W 095°01'0 0.0
2018-Feb-20 13:30N 29°37' W 095°01'0 0.3
2018-Feb-20 12:59N 29°37' W 095°01'4 3.4
2018-Feb-20 11:53N 29°36' W 094°57'10 5.7
2018-Feb-20 10:13N 29°28' W 094°51'2 5.8
2018-Feb-20 09:51N 29°26' W 094°50'2 5.6
2018-Feb-20 09:29N 29°24' W 094°49'4 3.3
2018-Feb-20 08:12N 29°22' W 094°53'1 3.2
2018-Feb-20 07:51N 29°22' W 094°54'0 0.1
2018-Feb-20 07:29N 29°22' W 094°54'0 0.1
2018-Feb-20 06:58N 29°22' W 094°54'0 0.0
2018-Feb-20 06:26N 29°22' W 094°54'29 1.4
2018-Feb-19 09:26N 28°59' W 095°15'1 2.8
2018-Feb-19 08:57N 29°01' W 095°15'2 1.8
2018-Feb-19 07:55N 29°02' W 095°14'0 1.0
2018-Feb-19 07:30N 29°03' W 095°14'2 3.0
2018-Feb-19 07:00N 29°04' W 095°13'0 0.6
2018-Feb-19 06:30N 29°04' W 095°13'1 2.8
2018-Feb-19 06:00N 29°06' W 095°12'2 3.4
2018-Feb-19 05:30N 29°07' W 095°11'2 4.2
2018-Feb-19 05:01N 29°09' W 095°10'3 4.8
2018-Feb-19 04:29N 29°10' W 095°07'3 4.5
2018-Feb-19 03:50N 29°12' W 095°04'2 4.7
2018-Feb-19 03:23N 29°13' W 095°02'14 2.0
2018-Feb-18 20:15N 29°22' W 094°50'2 4.9
2018-Feb-18 19:55N 29°22' W 094°48'9 5.8
2018-Feb-18 18:27N 29°30' W 094°52'2 5.1
2018-Feb-18 18:00N 29°32' W 094°53'3 5.5
2018-Feb-18 17:30N 29°34' W 094°55'2 4.9
2018-Feb-18 17:00N 29°36' W 094°57'2 4.7
2018-Feb-18 16:30N 29°38' W 094°58'2 4.9
2018-Feb-18 16:00N 29°40' W 094°59'2 4.8
2018-Feb-18 15:30N 29°42' W 095°01'3 4.3
2018-Feb-18 14:55N 29°44' W 095°03'3 4.7
2018-Feb-18 14:23N 29°46' W 095°05'1 0.2
2018-Feb-18 07:46N 29°47' W 095°05'1 2.5
2018-Feb-18 07:21N 29°46' W 095°05'1 3.1
2018-Feb-18 06:55N 29°47' W 095°04'0 0.1
2018-Feb-18 06:23N 29°47' W 095°04'2 1.7
2018-Feb-18 05:21N 29°46' W 095°06'2 0.5
2018-Feb-18 02:02N 29°47' W 095°04'1 4.5
2018-Feb-18 01:50N 29°46' W 095°05'1 0.8
2018-Feb-18 00:38N 29°45' W 095°04'1 6.4
2018-Feb-18 00:30N 29°45' W 095°04'2 4.6
2018-Feb-18 00:00N 29°43' W 095°01'3 5.5
2018-Feb-17 23:30N 29°41' W 094°59'3 6.1
2018-Feb-17 23:00N 29°39' W 094°58'3 5.8
2018-Feb-17 22:30N 29°36' W 094°57'3 5.0
2018-Feb-17 22:00N 29°34' W 094°55'13 1.0
2018-Feb-17 08:43N 29°25' W 094°44'0 0.0
2018-Feb-17 08:00N 29°25' W 094°44'0 0.0
2018-Feb-17 06:19N 29°25' W 094°44'0 0.0
2018-Feb-17 05:57N 29°25' W 094°44'0 0.0
2018-Feb-17 05:30N 29°25' W 094°44'0 0.0
2018-Feb-17 04:53N 29°25' W 094°44'0 0.0
2018-Feb-17 04:23N 29°25' W 094°44'0 0.0
2018-Feb-17 03:52N 29°25' W 094°44'0 0.0
2018-Feb-17 02:52N 29°25' W 094°44'0 0.0
2018-Feb-17 02:23N 29°25' W 094°44'0 0.0
2018-Feb-17 02:00N 29°25' W 094°44'0 0.0
2018-Feb-17 01:26N 29°25' W 094°44'0 0.0
2018-Feb-17 00:54N 29°25' W 094°44'0 0.1
2018-Feb-17 00:29N 29°25' W 094°44'3 4.6
2018-Feb-16 23:48N 29°23' W 094°47'1 3.6
2018-Feb-16 23:23N 29°22' W 094°48'1 1.5
2018-Feb-16 22:57N 29°21' W 094°49'22 1.5
2018-Feb-16 08:24N 29°09' W 095°10'0 0.1
2018-Feb-16 07:56N 29°09' W 095°10'0 0.0
2018-Feb-16 07:23N 29°09' W 095°10'0 0.0
2018-Feb-16 06:57N 29°09' W 095°10'0 0.0
2018-Feb-16 06:30N 29°09' W 095°10'0 0.0
2018-Feb-16 06:00N 29°09' W 095°10'0 0.0
2018-Feb-16 05:29N 29°09' W 095°10'0 0.0
2018-Feb-16 04:52N 29°09' W 095°10'0 0.0
2018-Feb-16 04:30N 29°09' W 095°10'0 0.0
2018-Feb-16 03:48N 29°08' W 095°10'0 0.0
2018-Feb-16 03:18N 29°09' W 095°10'0 0.0
2018-Feb-16 03:00N 29°09' W 095°10'0 0.0
2018-Feb-16 02:29N 29°09' W 095°10'0 0.0
2018-Feb-16 01:55N 29°09' W 095°10'0 0.0
2018-Feb-16 01:23N 29°09' W 095°10'0 0.0
2018-Feb-16 00:52N 29°09' W 095°10'0 0.0
2018-Feb-16 00:29N 29°09' W 095°10'0 0.4
2018-Feb-15 23:43N 29°09' W 095°10'1 2.7
2018-Feb-15 23:19N 29°08' W 095°10'2 5.4
2018-Feb-15 22:59N 29°07' W 095°12'4 5.4
2018-Feb-15 22:16N 29°03' W 095°13'3 5.5
2018-Feb-15 21:49N 29°01' W 095°14'6 2.3
2018-Feb-15 19:13N 28°57' W 095°20'0 0.0
2018-Feb-15 17:26N 28°57' W 095°20'1 0.4
2018-Feb-15 15:46N 28°57' W 095°20'1 0.1
2018-Feb-15 10:14N 28°57' W 095°20'0 0.0
2018-Feb-15 10:00N 28°57' W 095°20'0 0.0
2018-Feb-15 09:28N 28°57' W 095°20'0 0.0
2018-Feb-15 08:58N 28°57' W 095°20'0 0.0
2018-Feb-15 08:10N 28°57' W 095°20'0 0.0
2018-Feb-15 07:59N 28°57' W 095°20'0 0.0
2018-Feb-15 07:15N 28°57' W 095°20'0 0.0
2018-Feb-15 07:00N 28°57' W 095°20'0 0.0
2018-Feb-15 06:27N 28°57' W 095°20'0 0.0
2018-Feb-15 06:00N 28°57' W 095°20'0 0.0
2018-Feb-15 05:21N 28°57' W 095°20'0 0.0
2018-Feb-15 05:00N 28°57' W 095°20'0 0.0
2018-Feb-15 04:24N 28°57' W 095°20'0 0.0
2018-Feb-15 03:57N 28°57' W 095°20'0 0.0
2018-Feb-15 03:24N 28°57' W 095°20'0 0.0
2018-Feb-15 03:00N 28°57' W 095°20'0 0.0
2018-Feb-15 02:17N 28°57' W 095°20'0 0.0
2018-Feb-15 00:26N 28°57' W 095°20'0 0.0
2018-Feb-14 23:58N 28°57' W 095°20'0 0.0
2018-Feb-14 23:20N 28°57' W 095°20'0 0.0
2018-Feb-14 23:00N 28°57' W 095°20'1 0.3
2018-Feb-14 20:23N 28°56' W 095°19'1 1.6
2018-Feb-14 19:55N 28°57' W 095°20'0 0.2
2018-Feb-14 19:26N 28°57' W 095°20'0 0.3
2018-Feb-14 18:51N 28°57' W 095°20'0 0.2
2018-Feb-14 16:13N 28°56' W 095°20'1 1.1
2018-Feb-14 15:40N 28°57' W 095°20'  
Track history (hours):
 
Tides and Currents Weather Stations Pressure Air Temp Water Temp Dewpoint Dewpoint Depression Visibility Wind Speed Wind Dir Waves Ship Positions

Capt. Tom EchoLS Sr.

Owner: Echo Towing Service, Inc. P.O. Box 446 Baytown, Texas 77522, Baytown, TX. More information available from US FCC via Universal Licensing System and Coast Guard Vessel Documentation Center.

Last reported at 2018-Feb-23 05:58 UTC. Time now 2018-Feb-23 08:43 UTC.
Position N 29°46' W 095°05'.

Length 20 m; draft 2.4 m.

Type: . MMSI: 367125100.

Date/timePositionNaut miles runAvg speedWind from/ knotsBaromVisibWave heightAir tempDewpointWater temp
2018-Feb-23 05:58N 29°46' W 095°05'2 4.1
2018-Feb-23 05:30N 29°44' W 095°03'3 5.0
2018-Feb-23 04:59N 29°43' W 095°01'3 5.6
2018-Feb-23 04:30N 29°41' W 094°59'3 5.9
2018-Feb-23 04:00N 29°38' W 094°58'3 6.0
2018-Feb-23 03:30N 29°35' W 094°56'3 6.0
2018-Feb-23 02:59N 29°33' W 094°54'13 0.4
2018-Feb-21 14:30N 29°44' W 095°03'1 0.1
2018-Feb-20 18:11N 29°45' W 095°04'1 5.8
2018-Feb-20 17:57N 29°44' W 095°03'2 5.1
2018-Feb-20 17:30N 29°42' W 095°01'3 5.8
2018-Feb-20 17:00N 29°40' W 094°59'3 6.3
2018-Feb-20 16:30N 29°37' W 094°57'3 5.3
2018-Feb-20 16:00N 29°37' W 095°00'1 1.6
2018-Feb-20 15:30N 29°37' W 095°01'0 0.0
2018-Feb-20 15:00N 29°37' W 095°01'0 0.0
2018-Feb-20 14:30N 29°37' W 095°01'0 0.0
2018-Feb-20 14:00N 29°37' W 095°01'0 0.0
2018-Feb-20 13:30N 29°37' W 095°01'0 0.3
2018-Feb-20 12:59N 29°37' W 095°01'4 3.4
2018-Feb-20 11:53N 29°36' W 094°57'10 5.7
2018-Feb-20 10:13N 29°28' W 094°51'2 5.8
2018-Feb-20 09:51N 29°26' W 094°50'2 5.6
2018-Feb-20 09:29N 29°24' W 094°49'4 3.3
2018-Feb-20 08:12N 29°22' W 094°53'1 3.2
2018-Feb-20 07:51N 29°22' W 094°54'0 0.1
2018-Feb-20 07:29N 29°22' W 094°54'0 0.1
2018-Feb-20 06:58N 29°22' W 094°54'0 0.0
2018-Feb-20 06:26N 29°22' W 094°54'29 1.4
2018-Feb-19 09:26N 28°59' W 095°15'1 2.8
2018-Feb-19 08:57N 29°01' W 095°15'2 1.8
2018-Feb-19 07:55N 29°02' W 095°14'0 1.0
2018-Feb-19 07:30N 29°03' W 095°14'2 3.0
2018-Feb-19 07:00N 29°04' W 095°13'0 0.6
2018-Feb-19 06:30N 29°04' W 095°13'1 2.8
2018-Feb-19 06:00N 29°06' W 095°12'2 3.4
2018-Feb-19 05:30N 29°07' W 095°11'2 4.2
2018-Feb-19 05:01N 29°09' W 095°10'3 4.8
2018-Feb-19 04:29N 29°10' W 095°07'3 4.5
2018-Feb-19 03:50N 29°12' W 095°04'2 4.7
2018-Feb-19 03:23N 29°13' W 095°02'14 2.0
2018-Feb-18 20:15N 29°22' W 094°50'2 4.9
2018-Feb-18 19:55N 29°22' W 094°48'9 5.8
2018-Feb-18 18:27N 29°30' W 094°52'2 5.1
2018-Feb-18 18:00N 29°32' W 094°53'3 5.5
2018-Feb-18 17:30N 29°34' W 094°55'2 4.9
2018-Feb-18 17:00N 29°36' W 094°57'2 4.7
2018-Feb-18 16:30N 29°38' W 094°58'2 4.9
2018-Feb-18 16:00N 29°40' W 094°59'2 4.8
2018-Feb-18 15:30N 29°42' W 095°01'3 4.3
2018-Feb-18 14:55N 29°44' W 095°03'3 4.7
2018-Feb-18 14:23N 29°46' W 095°05'1 0.2
2018-Feb-18 07:46N 29°47' W 095°05'1 2.5
2018-Feb-18 07:21N 29°46' W 095°05'1 3.1
2018-Feb-18 06:55N 29°47' W 095°04'0 0.1
2018-Feb-18 06:23N 29°47' W 095°04'2 1.7
2018-Feb-18 05:21N 29°46' W 095°06'2 0.5
2018-Feb-18 02:02N 29°47' W 095°04'1 4.5
2018-Feb-18 01:50N 29°46' W 095°05'1 0.8
2018-Feb-18 00:38N 29°45' W 095°04'1 6.4
2018-Feb-18 00:30N 29°45' W 095°04'2 4.6
2018-Feb-18 00:00N 29°43' W 095°01'3 5.5
2018-Feb-17 23:30N 29°41' W 094°59'3 6.1
2018-Feb-17 23:00N 29°39' W 094°58'3 5.8
2018-Feb-17 22:30N 29°36' W 094°57'3 5.0
2018-Feb-17 22:00N 29°34' W 094°55'13 1.0
2018-Feb-17 08:43N 29°25' W 094°44'0 0.0
2018-Feb-17 08:00N 29°25' W 094°44'0 0.0
2018-Feb-17 06:19N 29°25' W 094°44'0 0.0
2018-Feb-17 05:57N 29°25' W 094°44'0 0.0
2018-Feb-17 05:30N 29°25' W 094°44'0 0.0
2018-Feb-17 04:53N 29°25' W 094°44'0 0.0
2018-Feb-17 04:23N 29°25' W 094°44'0 0.0
2018-Feb-17 03:52N 29°25' W 094°44'0 0.0
2018-Feb-17 02:52N 29°25' W 094°44'0 0.0
2018-Feb-17 02:23N 29°25' W 094°44'0 0.0
2018-Feb-17 02:00N 29°25' W 094°44'0 0.0
2018-Feb-17 01:26N 29°25' W 094°44'0 0.0
2018-Feb-17 00:54N 29°25' W 094°44'0 0.1
2018-Feb-17 00:29N 29°25' W 094°44'3 4.6
2018-Feb-16 23:48N 29°23' W 094°47'1 3.6
2018-Feb-16 23:23N 29°22' W 094°48'1 1.5
2018-Feb-16 22:57N 29°21' W 094°49'22 1.5
2018-Feb-16 08:24N 29°09' W 095°10'0 0.1
2018-Feb-16 07:56N 29°09' W 095°10'0 0.0
2018-Feb-16 07:23N 29°09' W 095°10'0 0.0
2018-Feb-16 06:57N 29°09' W 095°10'0 0.0
2018-Feb-16 06:30N 29°09' W 095°10'0 0.0
2018-Feb-16 06:00N 29°09' W 095°10'0 0.0
2018-Feb-16 05:29N 29°09' W 095°10'0 0.0
2018-Feb-16 04:52N 29°09' W 095°10'0 0.0
2018-Feb-16 04:30N 29°09' W 095°10'0 0.0
2018-Feb-16 03:48N 29°08' W 095°10'0 0.0
2018-Feb-16 03:18N 29°09' W 095°10'0 0.0
2018-Feb-16 03:00N 29°09' W 095°10'0 0.0
2018-Feb-16 02:29N 29°09' W 095°10'0 0.0
2018-Feb-16 01:55N 29°09' W 095°10'0 0.0
2018-Feb-16 01:23N 29°09' W 095°10'0 0.0
2018-Feb-16 00:52N 29°09' W 095°10'0 0.0
2018-Feb-16 00:29N 29°09' W 095°10'0 0.4
2018-Feb-15 23:43N 29°09' W 095°10'1 2.7
2018-Feb-15 23:19N 29°08' W 095°10'2 5.4
2018-Feb-15 22:59N 29°07' W 095°12'4 5.4
2018-Feb-15 22:16N 29°03' W 095°13'3 5.5
2018-Feb-15 21:49N 29°01' W 095°14'6 2.3
2018-Feb-15 19:13N 28°57' W 095°20'0 0.0
2018-Feb-15 17:26N 28°57' W 095°20'1 0.4
2018-Feb-15 15:46N 28°57' W 095°20'1 0.1
2018-Feb-15 10:14N 28°57' W 095°20'0 0.0
2018-Feb-15 10:00N 28°57' W 095°20'0 0.0
2018-Feb-15 09:28N 28°57' W 095°20'0 0.0
2018-Feb-15 08:58N 28°57' W 095°20'0 0.0
2018-Feb-15 08:10N 28°57' W 095°20'0 0.0
2018-Feb-15 07:59N 28°57' W 095°20'0 0.0
2018-Feb-15 07:15N 28°57' W 095°20'0 0.0
2018-Feb-15 07:00N 28°57' W 095°20'0 0.0
2018-Feb-15 06:27N 28°57' W 095°20'0 0.0
2018-Feb-15 06:00N 28°57' W 095°20'0 0.0
2018-Feb-15 05:21N 28°57' W 095°20'0 0.0
2018-Feb-15 05:00N 28°57' W 095°20'0 0.0
2018-Feb-15 04:24N 28°57' W 095°20'0 0.0
2018-Feb-15 03:57N 28°57' W 095°20'0 0.0
2018-Feb-15 03:24N 28°57' W 095°20'0 0.0
2018-Feb-15 03:00N 28°57' W 095°20'0 0.0
2018-Feb-15 02:17N 28°57' W 095°20'0 0.0
2018-Feb-15 00:26N 28°57' W 095°20'0 0.0
2018-Feb-14 23:58N 28°57' W 095°20'0 0.0
2018-Feb-14 23:20N 28°57' W 095°20'0 0.0
2018-Feb-14 23:00N 28°57' W 095°20'1 0.3
2018-Feb-14 20:23N 28°56' W 095°19'1 1.6
2018-Feb-14 19:55N 28°57' W 095°20'0 0.2
2018-Feb-14 19:26N 28°57' W 095°20'0 0.3
2018-Feb-14 18:51N 28°57' W 095°20'0 0.2
2018-Feb-14 16:13N 28°56' W 095°20'1 1.1
2018-Feb-14 15:40N 28°57' W 095°20'  

Dump ship's entire track history